Time;durP1;ratioP1;P1;durP2;ratioP2;P2;SDS_P1;SDS_P2;PMS_P1;PMS_P2;Temp;Humidity;BMP_temperature;BMP_pressure;BME280_temperature;BME280_humidity;BME280_pressure;Samples;Min_cycle;Max_cycle;Signal;HPM_P1;HPM_P2
2023/09/16 00:02:26;;;;;;;3.77;3.47;;;21.10;93.10;;;;;;5117110;28;20460;-88
2023/09/16 00:05:18;;;;;;;4.27;3.67;;;21.10;92.60;;;;;;5108974;28;20486;-85
2023/09/16 00:08:08;;;;;;;3.93;3.33;;;21.10;92.80;;;;;;5112477;28;20462;-86
2023/09/16 00:11:13;;;;;;;4.13;3.73;;;21.20;92.50;;;;;;5104734;28;20459;-85
2023/09/16 00:14:02;;;;;;;3.70;3.20;;;21.10;92.30;;;;;;5071819;28;20489;-87
2023/09/16 00:16:52;;;;;;;3.77;3.47;;;21.00;92.80;;;;;;5097103;28;20500;-85
2023/09/16 00:19:43;;;;;;;3.77;3.40;;;21.10;92.90;;;;;;5095656;28;20851;-86
2023/09/16 00:22:30;;;;;;;4.90;4.13;;;21.00;92.80;;;;;;5114800;28;20451;-86
2023/09/16 00:25:29;;;;;;;3.80;3.50;;;21.00;92.70;;;;;;5090476;28;20474;-84
2023/09/16 00:28:26;;;;;;;4.13;3.50;;;20.80;92.80;;;;;;5093819;28;20523;-86
2023/09/16 00:31:38;;;;;;;4.17;3.87;;;20.70;93.10;;;;;;5096854;28;20524;-84
2023/09/16 00:34:33;;;;;;;3.90;3.50;;;20.70;93.60;;;;;;5103575;28;20478;-87
2023/09/16 00:37:32;;;;;;;4.87;3.87;;;20.70;93.70;;;;;;5096094;28;20537;-86
2023/09/16 00:40:09;;;;;;;3.33;3.10;;;20.70;94.10;;;;;;5101255;28;20445;-87
2023/09/16 00:42:53;;;;;;;4.13;3.70;;;20.60;94.30;;;;;;5100667;28;20468;-82
2023/09/16 00:45:53;;;;;;;4.03;3.50;;;20.50;94.80;;;;;;5076071;27;20434;-85
2023/09/16 00:48:52;;;;;;;4.90;3.87;;;20.60;94.80;;;;;;5104023;28;20458;-84
2023/09/16 00:51:45;;;;;;;4.73;4.23;;;20.70;94.60;;;;;;5104207;28;20479;-86
2023/09/16 00:54:44;;;;;;;5.80;3.50;;;20.60;94.70;;;;;;5101836;28;20517;-87
2023/09/16 00:57:44;;;;;;;4.23;3.33;;;20.70;94.60;;;;;;5118757;28;20574;-88
2023/09/16 01:00:35;;;;;;;5.90;3.90;;;20.70;94.50;;;;;;5106695;28;20426;-86
2023/09/16 01:03:26;;;;;;;4.73;3.60;;;20.60;94.60;;;;;;5115496;28;20525;-84
2023/09/16 01:06:24;;;;;;;3.67;3.40;;;20.50;94.80;;;;;;5106400;28;20447;-85
2023/09/16 01:09:44;;;;;;;;;;;;;;;;;;;;;
2023/09/16 01:12:52;;;;;;;;;;;;;;;;;;;;;
2023/09/16 01:15:58;;;;;;;3.60;3.30;;;20.40;95.50;;;;;;5103604;28;20453;-85
2023/09/16 01:19:00;;;;;;;4.00;3.47;;;20.40;95.10;;;;;;5099288;28;20581;-85
2023/09/16 01:22:06;;;;;;;4.80;3.50;;;20.30;94.90;;;;;;5089288;28;20428;-86
2023/09/16 01:24:53;;;;;;;4.83;3.47;;;20.20;95.40;;;;;;5097672;28;20477;-86
2023/09/16 01:27:38;;;;;;;3.10;2.90;;;20.30;95.10;;;;;;5093566;28;20461;-85
2023/09/16 01:30:14;;;;;;;3.90;3.60;;;20.20;95.30;;;;;;5105088;28;20483;-85
2023/09/16 01:33:34;;;;;;;3.63;3.33;;;20.10;95.30;;;;;;5080655;28;20484;-85
2023/09/16 01:36:48;;;;;;;2.90;2.70;;;20.10;95.70;;;;;;5071806;28;20429;-86
2023/09/16 01:39:41;;;;;;;3.67;3.37;;;20.10;95.50;;;;;;5102494;28;20453;-87
2023/09/16 01:42:48;;;;;;;4.00;3.60;;;20.00;95.50;;;;;;5099101;28;20451;-84
2023/09/16 01:45:37;;;;;;;3.93;3.23;;;20.20;95.00;;;;;;5104743;28;20444;-85
2023/09/16 01:48:16;;;;;;;3.87;3.27;;;20.00;95.20;;;;;;5105559;28;20443;-83
2023/09/16 01:50:59;;;;;;;4.83;3.53;;;20.00;95.40;;;;;;5106965;28;20487;-86
2023/09/16 01:53:57;;;;;;;4.20;3.20;;;20.00;95.30;;;;;;5100430;28;20529;-86
2023/09/16 01:57:12;;;;;;;4.17;3.30;;;20.00;95.10;;;;;;5074991;28;20992;-85
2023/09/16 01:59:53;;;;;;;3.50;3.20;;;19.80;95.50;;;;;;5085828;28;20558;-83
2023/09/16 02:02:20;;;;;;;4.53;3.27;;;19.80;95.80;;;;;;5086555;28;20447;-85
2023/09/16 02:04:47;;;;;;;4.10;3.50;;;19.70;96.10;;;;;;5095598;28;20458;-85
2023/09/16 02:07:14;;;;;;;4.27;3.97;;;19.80;96.20;;;;;;5096138;28;20494;-86
2023/09/16 02:09:42;;;;;;;3.33;3.00;;;19.80;95.90;;;;;;5095857;28;20450;-84
2023/09/16 02:12:19;;;;;;;5.10;4.10;;;19.70;96.30;;;;;;5096502;28;20451;-86
2023/09/16 02:15:14;;;;;;;4.17;3.33;;;19.80;96.40;;;;;;5096619;28;20486;-86
2023/09/16 02:18:33;;;;;;;3.87;3.03;;;19.70;96.40;;;;;;5089545;28;20483;-87
2023/09/16 02:21:15;;;;;;;4.80;3.00;;;19.70;96.40;;;;;;5089080;28;20455;-85
2023/09/16 02:24:18;;;;;;;3.90;3.60;;;19.70;96.40;;;;;;5094573;28;20632;-85
2023/09/16 02:27:13;;;;;;;3.70;3.40;;;19.60;96.20;;;;;;5096133;28;20461;-87
2023/09/16 02:30:26;;;;;;;3.77;3.50;;;19.50;96.50;;;;;;5086716;28;20493;-85
2023/09/16 02:33:35;;;;;;;3.10;2.80;;;19.40;96.80;;;;;;5087039;28;20466;-87
2023/09/16 02:37:18;;;;;;;3.43;3.13;;;19.60;96.60;;;;;;5101582;28;20421;-86
2023/09/16 02:40:25;;;;;;;4.17;3.77;;;19.40;96.90;;;;;;5095808;28;20489;-86
2023/09/16 02:43:19;;;;;;;;;;;;;;;;;;;;;
2023/09/16 02:46:17;;;;;;;2.90;2.70;;;19.30;97.30;;;;;;5098710;28;20545;-85
2023/09/16 02:49:11;;;;;;;3.90;3.60;;;19.30;97.20;;;;;;5070481;28;20458;-84
2023/09/16 02:52:05;;;;;;;4.57;3.60;;;19.30;97.40;;;;;;5098611;28;20466;-85
2023/09/16 02:54:47;;;;;;;4.30;3.30;;;19.50;96.80;;;;;;5105205;28;20467;-85
2023/09/16 02:58:07;;;;;;;4.53;4.10;;;19.50;97.00;;;;;;5104674;28;20465;-87
2023/09/16 03:01:15;;;;;;;3.83;3.53;;;19.60;97.10;;;;;;5097991;28;20438;-86
2023/09/16 03:04:22;;;;;;;4.33;3.93;;;19.50;97.20;;;;;;5105907;28;20438;-87
2023/09/16 03:07:27;;;;;;;5.20;3.40;;;19.30;97.30;;;;;;5094191;28;20459;-86
2023/09/16 03:10:19;;;;;;;4.60;3.97;;;19.30;97.80;;;;;;5015348;28;20883;-86
2023/09/16 03:16:50;;;;;;;3.80;3.23;;;19.50;98.20;;;;;;5030527;28;20458;-85
2023/09/16 03:20:04;;;;;;;3.97;3.60;;;19.40;98.20;;;;;;5034236;28;20427;-86
2023/09/16 03:23:17;;;;;;;4.83;3.97;;;19.40;98.20;;;;;;5045685;28;20428;-84
2023/09/16 03:26:10;;;;;;;4.03;3.63;;;19.50;98.20;;;;;;5028454;28;20476;-85
2023/09/16 03:29:14;;;;;;;3.67;3.37;;;19.30;98.70;;;;;;5039713;28;20509;-85
2023/09/16 03:32:28;;;;;;;3.70;3.40;;;19.20;99.40;;;;;;5032329;28;20456;-85
2023/09/16 03:35:21;;;;;;;4.50;3.20;;;19.10;99.40;;;;;;5011517;28;20481;-86
2023/09/16 03:39:05;;;;;;;4.17;3.77;;;19.10;99.00;;;;;;5024207;28;20477;-86
2023/09/16 03:41:53;;;;;;;4.47;3.37;;;19.00;99.00;;;;;;5029278;28;20439;-85
2023/09/16 03:44:31;;;;;;;6.17;4.40;;;18.90;99.20;;;;;;5038038;28;20468;-84
2023/09/16 03:47:25;;;;;;;4.47;3.97;;;18.80;99.20;;;;;;5075949;28;20473;-86
2023/09/16 03:50:10;;;;;;;3.90;3.60;;;18.80;99.40;;;;;;5104380;28;20453;-86
2023/09/16 03:52:51;;;;;;;3.30;3.00;;;18.70;99.40;;;;;;5104399;28;20465;-85
2023/09/16 03:55:44;;;;;;;4.70;4.30;;;18.60;99.50;;;;;;5102171;28;20839;-85
2023/09/16 03:58:33;;;;;;;3.83;3.43;;;18.50;99.70;;;;;;5099897;28;20475;-84
2023/09/16 04:01:37;;;;;;;4.17;3.53;;;18.50;99.90;;;;;;5100558;28;20465;-85
2023/09/16 04:04:50;;;;;;;4.23;3.80;;;18.60;99.90;;;;;;5095516;28;20449;-86
2023/09/16 04:07:53;;;;;;;5.50;3.80;;;18.70;99.90;;;;;;5115398;28;20524;-89
2023/09/16 04:14:47;;;;;;;4.00;3.60;;;18.80;99.70;;;;;;5045506;28;20441;-84
2023/09/16 04:17:44;;;;;;;5.00;4.00;;;18.70;99.50;;;;;;5090530;28;20470;-86
2023/09/16 04:20:56;;;;;;;4.00;3.70;;;18.60;99.90;;;;;;5095981;28;20446;-84
2023/09/16 04:27:20;;;;;;;3.80;3.50;;;18.70;99.90;;;;;;5094065;28;20638;-85
2023/09/16 04:30:49;;;;;;;;;;;;;;;;;;;;;
2023/09/16 04:40:14;;;;;;;3.83;3.53;;;18.60;99.90;;;;;;5088104;28;20453;-85
2023/09/16 04:46:20;;;;;;;3.73;3.43;;;18.70;99.90;;;;;;5062370;28;20514;-84
2023/09/16 04:49:09;;;;;;;4.03;3.73;;;18.80;99.90;;;;;;5096163;28;20451;-84
2023/09/16 04:52:04;;;;;;;4.30;4.00;;;18.60;99.90;;;;;;5093186;28;20489;-85
2023/09/16 04:55:19;;;;;;;3.73;3.43;;;18.60;99.90;;;;;;5026876;28;20453;-84
2023/09/16 04:58:29;;;;;;;;;;;;;;;;;;;;;
2023/09/16 05:01:48;;;;;;;5.53;4.10;;;18.50;99.90;;;;;;5035424;28;20447;-86
2023/09/16 05:04:39;;;;;;;3.67;3.37;;;18.70;99.90;;;;;;5029384;28;20461;-87
2023/09/16 05:07:48;;;;;;;4.07;3.67;;;18.50;99.90;;;;;;5036944;28;20469;-89
2023/09/16 05:10:32;;;;;;;3.83;3.50;;;18.50;99.90;;;;;;5038880;28;20453;-85
2023/09/16 05:13:21;;;;;;;3.40;3.10;;;18.50;99.90;;;;;;5033587;28;20572;-87
2023/09/16 05:20:09;;;;;;;4.50;3.30;;;18.40;99.90;;;;;;5031322;28;20469;-85
2023/09/16 05:23:01;;;;;;;5.30;3.47;;;18.70;99.90;;;;;;5035595;28;20492;-86
2023/09/16 05:26:05;;;;;;;3.67;3.37;;;18.80;99.90;;;;;;4978389;28;20447;-86
2023/09/16 05:28:36;;;;;;;3.93;3.53;;;18.60;99.90;;;;;;4982803;28;20447;-86
2023/09/16 05:31:19;;;;;;;3.57;3.23;;;18.60;99.90;;;;;;5008825;28;20507;-86
2023/09/16 05:34:19;;;;;;;4.53;3.30;;;18.70;99.90;;;;;;5017234;28;20481;-85
2023/09/16 05:37:22;;;;;;;3.60;3.30;;;18.60;99.90;;;;;;5054376;28;20445;-86
2023/09/16 05:40:15;;;;;;;4.33;3.77;;;18.70;99.90;;;;;;5020052;28;20483;-85
2023/09/16 05:50:49;;;;;;;4.63;4.23;;;18.60;99.90;;;;;;5045591;28;20506;-85
2023/09/16 05:54:17;;;;;;;;;;;;;;;;;;;;;
2023/09/16 05:57:25;;;;;;;;;;;;;;;;;;;;;
2023/09/16 06:00:33;;;;;;;;;;;;;;;;;;;;;
2023/09/16 06:08:03;;;;;;;4.70;4.30;;;18.80;99.90;;;;;;5095900;27;20436;-88
2023/09/16 06:15:26;;;;;;;4.00;3.60;;;21.40;98.40;;;;;;5108716;28;20418;-85
2023/09/16 06:18:46;;;;;;;4.13;3.53;;;23.50;92.40;;;;;;5087180;28;20513;-85
2023/09/16 06:21:50;;;;;;;3.83;3.30;;;25.10;86.30;;;;;;4975283;28;20492;-86
2023/09/16 06:25:23;;;;;;;;;;;;;;;;;;;;;
2023/09/16 06:28:41;;;;;;;3.47;3.23;;;26.10;79.80;;;;;;5103029;28;20437;-86
2023/09/16 06:49:24;;;;;;;3.60;3.30;;;24.50;75.80;;;;;;5029879;28;20469;-86
2023/09/16 06:52:44;;;;;;;4.03;3.10;;;23.60;84.00;;;;;;5000521;28;20438;-87
2023/09/16 06:56:30;;;;;;;;;;;;;;;;;;;;;
2023/09/16 06:59:27;;;;;;;3.10;2.80;;;26.50;75.60;;;;;;5036005;28;20483;-86
2023/09/16 07:02:36;;;;;;;3.30;3.00;;;27.40;70.50;;;;;;5028121;28;20547;-86
2023/09/16 07:06:03;;;;;;;;;;;;;;;;;;;;;
2023/09/16 07:12:09;;;;;;;;;;;;;;;;;;;;;
2023/09/16 07:19:15;;;;;;;3.40;3.10;;;24.80;85.50;;;;;;4980057;28;20480;-86
2023/09/16 07:22:30;;;;;;;4.07;3.23;;;27.90;70.20;;;;;;4923530;28;21091;-86
2023/09/16 07:26:05;;;;;;;3.30;3.07;;;29.00;64.10;;;;;;4966350;28;20423;-85
2023/09/16 07:29:02;;;;;;;3.73;3.40;;;29.70;62.20;;;;;;4987610;28;20466;-87
2023/09/16 07:32:44;;;;;;;3.57;3.27;;;29.90;58.60;;;;;;4989467;28;20423;-87
2023/09/16 07:35:51;;;;;;;2.87;2.67;;;29.50;59.00;;;;;;4971330;28;20434;-86
2023/09/16 07:38:54;;;;;;;3.60;3.30;;;30.50;58.30;;;;;;4995233;28;20494;-88
2023/09/16 07:42:05;;;;;;;3.23;2.93;;;31.00;56.00;;;;;;4992087;28;20449;-85
2023/09/16 07:45:29;;;;;;;4.37;2.80;;;30.70;56.20;;;;;;5022285;28;20485;-87
2023/09/16 07:48:44;;;;;;;3.47;3.17;;;30.20;55.80;;;;;;4996423;28;20468;-86
2023/09/16 07:51:35;;;;;;;3.30;3.00;;;29.70;58.50;;;;;;5024438;28;20524;-86
2023/09/16 07:54:42;;;;;;;3.13;2.93;;;29.50;57.00;;;;;;5122557;22;20502;-87
2023/09/16 08:00:58;;;;;;;4.00;2.70;;;29.50;58.40;;;;;;5073893;28;20439;-89
2023/09/16 08:04:39;;;;;;;;;;;;;;;;;;;;;
2023/09/16 08:08:38;;;;;;;3.03;2.83;;;31.10;55.40;;;;;;5076962;28;20414;-85
2023/09/16 08:14:42;;;;;;;4.03;2.90;;;31.40;53.50;;;;;;5069101;28;20463;-89
2023/09/16 08:17:23;;;;;;;3.00;2.77;;;32.00;52.00;;;;;;5096773;28;20451;-88
2023/09/16 08:20:42;;;;;;;3.03;2.83;;;32.10;52.50;;;;;;5094847;28;20454;-88
2023/09/16 08:23:44;;;;;;;4.77;4.30;;;31.80;52.00;;;;;;5051455;28;20527;-89
2023/09/16 08:26:35;;;;;;;;;;;;;;;;;;;;;
2023/09/16 08:36:51;;;;;;;3.43;3.13;;;24.80;70.70;;;;;;5080393;28;20475;-86
2023/09/16 08:39:45;;;;;;;4.00;3.20;;;24.20;74.30;;;;;;4992713;28;20475;-85
2023/09/16 08:49:44;;;;;;;3.60;3.40;;;23.20;81.70;;;;;;4978926;28;20431;-83
2023/09/16 08:55:52;;;;;;;4.43;4.13;;;23.20;83.70;;;;;;4979171;28;20468;-86
2023/09/16 08:58:48;;;;;;;6.40;4.00;;;22.90;85.70;;;;;;4962692;28;20482;-87
2023/09/16 09:01:34;;;;;;;4.10;3.70;;;23.10;86.50;;;;;;4975795;28;20478;-87
2023/09/16 09:12:16;;;;;;;;;;;;;;;;;;;;;
2023/09/16 09:15:04;;;;;;;3.47;3.17;;;23.00;88.60;;;;;;4941736;29;20501;-85
2023/09/16 09:18:08;;;;;;;4.03;3.63;;;23.10;88.90;;;;;;4979223;28;20991;-85
2023/09/16 09:21:13;;;;;;;6.93;5.13;;;23.40;88.80;;;;;;5005424;28;20505;-86
2023/09/16 09:24:15;;;;;;;3.83;3.53;;;23.40;88.40;;;;;;5126369;22;20484;-87
2023/09/16 09:27:02;;;;;;;;;;;;;;;;;;;;;
2023/09/16 09:29:59;;;;;;;5.00;4.60;;;23.50;88.30;;;;;;5056260;28;20791;-84
2023/09/16 09:32:51;;;;;;;4.63;4.23;;;23.60;88.80;;;;;;5033587;28;20529;-86
2023/09/16 09:43:31;;;;;;;4.17;3.77;;;24.90;85.20;;;;;;5051654;28;20420;-85
2023/09/16 09:46:48;;;;;;;3.50;3.20;;;27.10;77.60;;;;;;5032346;28;20618;-86
2023/09/16 09:49:54;;;;;;;3.90;3.50;;;27.80;71.20;;;;;;5018674;28;20504;-85
2023/09/16 09:53:20;;;;;;;3.33;3.13;;;29.10;66.20;;;;;;5022780;28;20565;-86
2023/09/16 10:03:21;;;;;;;4.93;4.50;;;30.30;59.70;;;;;;4988662;28;20471;-86
2023/09/16 10:07:21;;;;;;;;;;;;;;;;;;;;;
2023/09/16 10:11:21;;;;;;;4.00;3.70;;;31.30;57.40;;;;;;4952501;29;20453;-88
2023/09/16 10:17:44;;;;;;;3.50;3.20;;;30.80;57.40;;;;;;5012079;28;20435;-87
2023/09/16 10:21:13;;;;;;;;;;;;;;;;;;;;;
2023/09/16 10:24:37;;;;;;;3.60;3.40;;;31.30;56.40;;;;;;5025257;22;20488;-86
2023/09/16 10:31:36;;;;;;;4.50;4.20;;;31.40;55.90;;;;;;4954582;28;20532;-86
2023/09/16 10:35:03;;;;;;;4.47;4.07;;;31.20;56.30;;;;;;4983634;28;20463;-88
2023/09/16 10:38:28;;;;;;;4.77;4.33;;;31.00;57.00;;;;;;4968815;28;20486;-86
2023/09/16 10:41:46;;;;;;;4.27;3.97;;;30.20;58.40;;;;;;4996444;28;20883;-85
2023/09/16 10:45:11;;;;;;;4.30;3.87;;;31.20;57.20;;;;;;4939669;29;20481;-84
2023/09/16 10:48:28;;;;;;;4.27;3.97;;;31.90;55.90;;;;;;4901225;29;20483;-84
2023/09/16 10:55:15;;;;;;;4.37;3.97;;;32.00;55.00;;;;;;4866215;29;20468;-85
2023/09/16 10:58:36;;;;;;;4.57;4.10;;;31.90;55.90;;;;;;4937952;28;20538;-87
2023/09/16 11:05:13;;;;;;;4.13;3.83;;;31.80;55.20;;;;;;4998470;28;20470;-86
2023/09/16 11:08:36;;;;;;;4.20;3.90;;;32.00;55.50;;;;;;5014579;28;20831;-86
2023/09/16 11:16:13;;;;;;;5.00;4.60;;;32.20;54.80;;;;;;4993287;28;20426;-86
2023/09/16 11:19:41;;;;;;;4.50;4.20;;;32.10;54.20;;;;;;5024640;28;20484;-87
2023/09/16 11:26:13;;;;;;;4.23;3.83;;;32.30;53.90;;;;;;4907083;26;20464;-88
2023/09/16 11:35:23;;;;;;;4.67;4.27;;;32.40;53.90;;;;;;5177709;23;20470;-86
2023/09/16 11:42:30;;;;;;;4.07;3.80;;;31.90;54.30;;;;;;5019273;28;20417;-85
2023/09/16 11:45:35;;;;;;;4.07;3.80;;;32.40;53.30;;;;;;5019241;28;20466;-89
2023/09/16 11:49:04;;;;;;;4.50;4.20;;;31.90;53.90;;;;;;5003013;28;20454;-87
2023/09/16 11:52:11;;;;;;;3.93;3.63;;;32.00;54.10;;;;;;4997921;28;20463;-87
2023/09/16 11:55:23;;;;;;;4.53;4.23;;;32.50;53.70;;;;;;5031848;28;20541;-86
2023/09/16 12:01:48;;;;;;;3.60;3.40;;;33.20;52.20;;;;;;5020993;28;20454;-88
2023/09/16 12:05:18;;;;;;;5.53;4.00;;;32.90;52.00;;;;;;5012660;28;20446;-86
2023/09/16 12:11:56;;;;;;;3.77;3.57;;;33.10;51.60;;;;;;5023317;28;20529;-86
2023/09/16 12:15:02;;;;;;;;;;;;;;;;;;;;;
2023/09/16 12:18:18;;;;;;;4.37;4.07;;;33.10;51.60;;;;;;5021900;28;20446;-86
2023/09/16 12:26:13;;;;;;;;;;;;;;;;;;;;;
2023/09/16 12:29:37;;;;;;;4.53;4.23;;;32.20;53.00;;;;;;5024064;28;20477;-85
2023/09/16 12:36:39;;;;;;;4.60;4.30;;;31.80;53.60;;;;;;4935911;29;20454;-86
2023/09/16 12:40:06;;;;;;;4.10;3.80;;;31.50;54.30;;;;;;4971626;28;20495;-88
2023/09/16 12:42:51;;;;;;;4.60;4.30;;;31.70;54.30;;;;;;4983695;28;20453;-88
2023/09/16 12:49:43;;;;;;;4.77;4.47;;;32.00;53.60;;;;;;4938058;28;20509;-84
2023/09/16 12:53:29;;;;;;;4.13;3.83;;;31.80;53.70;;;;;;4915482;29;20445;-87
2023/09/16 12:56:39;;;;;;;5.30;4.80;;;31.60;53.80;;;;;;4915961;29;20553;-86
2023/09/16 13:11:19;;;;;;;4.37;4.07;;;30.90;55.30;;;;;;5024928;28;20437;-85
2023/09/16 13:14:42;;;;;;;3.73;3.40;;;31.00;54.80;;;;;;4987379;28;20927;-85
2023/09/16 13:17:41;;;;;;;5.40;4.83;;;30.80;54.90;;;;;;4988556;28;20435;-86
2023/09/16 13:21:11;;;;;;;4.30;3.90;;;30.90;55.10;;;;;;4987712;28;20493;-87
2023/09/16 13:24:28;;;;;;;;;;;;;;;;;;;;;
2023/09/16 13:34:25;;;;;;;4.40;4.03;;;30.70;55.00;;;;;;4994120;28;20478;-85
2023/09/16 13:41:02;;;;;;;4.20;3.90;;;30.90;54.90;;;;;;4898075;29;20466;-87
2023/09/16 13:44:19;;;;;;;;;;;;;;;;;;;;;
2023/09/16 13:47:53;;;;;;;5.77;5.27;;;31.10;54.20;;;;;;4909159;29;20435;-85
2023/09/16 13:51:12;;;;;;;4.20;3.40;;;31.50;53.90;;;;;;4895744;29;20467;-86
2023/09/16 13:54:16;;;;;;;9.53;8.77;;;31.80;52.20;;;;;;4878507;29;20456;-87
2023/09/16 13:57:16;;;;;;;4.97;4.47;;;31.90;51.90;;;;;;4957898;28;20514;-84
2023/09/16 14:04:02;;;;;;;25.20;23.27;;;32.10;51.00;;;;;;4946228;29;20553;-86
2023/09/16 14:07:14;;;;;;;4.40;4.07;;;32.10;51.00;;;;;;4935234;28;20442;-86
2023/09/16 14:10:45;;;;;;;3.93;3.63;;;31.40;52.00;;;;;;5010522;28;20961;-86
2023/09/16 14:13:58;;;;;;;10.10;9.40;;;30.90;52.50;;;;;;5003610;28;20494;-86
2023/09/16 14:17:15;;;;;;;3.97;3.63;;;30.90;53.20;;;;;;5011567;28;20434;-86
2023/09/16 14:20:09;;;;;;;6.07;5.10;;;31.00;53.00;;;;;;4995851;28;20475;-87
2023/09/16 14:25:50;;;;;;;4.30;3.90;;;30.70;54.40;;;;;;5046939;22;20490;-87
2023/09/16 14:28:52;;;;;;;;;;;;;;;;;;;;;
2023/09/16 14:31:57;;;;;;;5.00;4.60;;;30.60;55.60;;;;;;4975427;28;20448;-87
2023/09/16 14:35:12;;;;;;;4.07;3.70;;;30.50;56.10;;;;;;4917042;28;20583;-85
2023/09/16 14:38:24;;;;;;;;;;;;;;;;;;;;;
2023/09/16 14:45:17;;;;;;;4.33;4.03;;;30.10;57.10;;;;;;4943476;28;20444;-86
2023/09/16 14:48:44;;;;;;;4.27;3.90;;;30.10;57.90;;;;;;4943374;29;20504;-85
2023/09/16 14:52:02;;;;;;;4.60;4.30;;;30.10;57.50;;;;;;4919364;29;20461;-85
2023/09/16 14:55:27;;;;;;;4.93;4.63;;;29.70;58.00;;;;;;4839697;29;20929;-86
2023/09/16 15:06:30;;;;;;;4.50;4.20;;;29.70;58.90;;;;;;4830714;29;20563;-86
2023/09/16 15:10:21;;;;;;;5.10;4.70;;;29.80;58.60;;;;;;4749724;30;20452;-85
2023/09/16 15:13:59;;;;;;;;;;;;;;;;;;;;;
2023/09/16 15:17:04;;;;;;;4.10;3.43;;;29.60;59.80;;;;;;4827872;29;20519;-86
2023/09/16 15:20:10;;;;;;;3.90;3.60;;;29.60;59.30;;;;;;4850981;29;20663;-86
2023/09/16 15:23:08;;;;;;;4.17;3.80;;;29.40;59.80;;;;;;4903911;29;20502;-86
2023/09/16 15:43:44;;;;;;;4.00;3.70;;;29.00;61.70;;;;;;5012361;28;20482;-86
2023/09/16 15:46:43;;;;;;;4.73;4.33;;;29.00;62.60;;;;;;4972305;28;20457;-89
2023/09/16 15:50:12;;;;;;;4.43;4.03;;;29.00;62.20;;;;;;4996843;28;20874;-86
2023/09/16 15:59:43;;;;;;;4.50;4.20;;;28.90;62.90;;;;;;4984242;28;20494;-86
2023/09/16 16:03:05;;;;;;;4.90;4.23;;;29.00;62.50;;;;;;4994711;28;20458;-85
2023/09/16 16:06:43;;;;;;;4.43;4.13;;;28.90;62.10;;;;;;4975715;28;20483;-87
2023/09/16 16:09:53;;;;;;;;;;;;;;;;;;;;;
2023/09/16 16:12:57;;;;;;;4.50;4.10;;;28.70;62.30;;;;;;4977984;28;21062;-85
2023/09/16 16:23:43;;;;;;;5.70;5.20;;;28.70;63.00;;;;;;4926655;29;20471;-87
2023/09/16 16:27:21;;;;;;;3.90;3.50;;;28.60;63.80;;;;;;4899258;29;20503;-85
2023/09/16 16:30:32;;;;;;;4.20;3.90;;;28.50;63.90;;;;;;4925268;29;20430;-87
2023/09/16 16:34:06;;;;;;;4.93;4.53;;;28.60;63.90;;;;;;4904823;29;20503;-85
2023/09/16 16:40:27;;;;;;;4.73;4.33;;;28.90;62.20;;;;;;4933034;29;20543;-89
2023/09/16 16:43:10;;;;;;;6.33;4.73;;;28.70;62.70;;;;;;5547357;23;20529;-88
2023/09/16 16:50:11;;;;;;;4.33;4.03;;;28.60;64.10;;;;;;5001363;28;20466;-86
2023/09/16 17:00:06;;;;;;;5.23;4.77;;;28.40;63.90;;;;;;4951306;28;20551;-87
2023/09/16 17:03:09;;;;;;;4.60;4.30;;;28.40;64.50;;;;;;4984842;28;20457;-87
2023/09/16 17:06:43;;;;;;;4.77;4.37;;;28.30;65.00;;;;;;4948592;28;20445;-88
2023/09/16 17:10:00;;;;;;;4.77;4.40;;;28.10;65.50;;;;;;4956560;28;20450;-87
2023/09/16 17:13:36;;;;;;;4.63;4.27;;;27.90;66.10;;;;;;4955934;28;20537;-87
2023/09/16 17:16:48;;;;;;;5.30;4.87;;;27.80;67.10;;;;;;4920649;29;20446;-87
2023/09/16 17:20:04;;;;;;;4.77;4.40;;;27.70;68.20;;;;;;4930670;29;20481;-86
2023/09/16 17:27:15;;;;;;;;;;;;;;;;;;;;;
2023/09/16 17:41:39;;;;;;;8.50;7.60;;;27.60;70.50;;;;;;5021186;28;20531;-85
2023/09/16 17:49:02;;;;;;;;;;;;;;;;;;;;;
2023/09/16 17:51:58;;;;;;;7.97;7.17;;;27.40;72.20;;;;;;4967483;28;20441;-86
2023/09/16 18:02:17;;;;;;;7.03;6.23;;;27.30;72.90;;;;;;4941941;29;20444;-87
2023/09/16 18:05:38;;;;;;;;;;;;;;;;;;;;;
2023/09/16 18:08:53;;;;;;;7.20;6.50;;;27.20;73.50;;;;;;4928683;29;20510;-86
2023/09/16 18:12:07;;;;;;;8.23;6.40;;;27.10;73.90;;;;;;4914900;29;20473;-85
2023/09/16 18:15:06;;;;;;;7.87;7.07;;;27.10;75.10;;;;;;4933969;29;20495;-85
2023/09/16 18:21:54;;;;;;;8.13;6.90;;;27.30;76.40;;;;;;5004773;28;20494;-86
2023/09/16 18:25:33;;;;;;;8.90;7.23;;;27.20;75.50;;;;;;4934051;28;20477;-88
2023/09/16 18:28:29;;;;;;;7.10;6.50;;;27.30;76.10;;;;;;4910422;29;20425;-86
2023/09/16 18:31:53;;;;;;;7.13;6.53;;;27.10;76.20;;;;;;4887109;29;20444;-87
2023/09/16 18:38:58;;;;;;;5.93;4.90;;;27.00;78.00;;;;;;5007460;28;20435;-86
2023/09/16 18:41:56;;;;;;;7.20;5.93;;;26.90;78.80;;;;;;5017311;28;20461;-86
2023/09/16 18:51:08;;;;;;;8.30;7.50;;;26.80;78.70;;;;;;4997770;28;20457;-85
2023/09/16 18:54:11;;;;;;;;;;;;;;;;;;;;;
2023/09/16 18:57:38;;;;;;;7.83;6.30;;;26.80;78.70;;;;;;5009960;28;20489;-87
2023/09/16 19:04:02;;;;;;;8.33;7.00;;;26.80;79.50;;;;;;4991520;28;20588;-88
2023/09/16 19:06:50;;;;;;;6.83;6.13;;;26.60;80.60;;;;;;4984367;28;20477;-87
2023/09/16 19:10:22;;;;;;;6.77;6.13;;;26.40;81.70;;;;;;4993351;28;20494;-86
2023/09/16 19:13:52;;;;;;;7.57;6.60;;;26.50;82.80;;;;;;5006809;28;20549;-85
2023/09/16 19:17:04;;;;;;;6.97;6.20;;;26.60;81.80;;;;;;5017602;28;20444;-85
2023/09/16 19:19:58;;;;;;;;;;;;;;;;;;;;;
2023/09/16 19:22:39;;;;;;;6.70;5.50;;;26.60;81.80;;;;;;4997133;28;20474;-85
2023/09/16 19:25:53;;;;;;;6.57;5.93;;;26.40;82.10;;;;;;5123268;23;21003;-85
2023/09/16 19:29:03;;;;;;;6.70;6.10;;;26.50;82.00;;;;;;5036903;28;20402;-85
2023/09/16 19:31:46;;;;;;;7.83;5.80;;;26.30;82.90;;;;;;5052933;28;20460;-85
2023/09/16 19:34:46;;;;;;;6.53;6.00;;;26.00;84.40;;;;;;5035200;28;20461;-85
2023/09/16 19:37:55;;;;;;;6.43;5.87;;;25.90;85.70;;;;;;5033971;28;20888;-85
2023/09/16 19:40:50;;;;;;;6.90;6.30;;;25.90;86.80;;;;;;5039147;28;20481;-87
2023/09/16 19:44:04;;;;;;;;;;;;;;;;;;;;;
2023/09/16 19:46:53;;;;;;;7.50;6.90;;;25.90;88.10;;;;;;5034570;28;20459;-85
2023/09/16 19:49:41;;;;;;;7.17;6.47;;;25.80;88.60;;;;;;5027665;28;20449;-85
2023/09/16 19:52:41;;;;;;;;;;;;;;;;;;;;;
2023/09/16 19:56:03;;;;;;;7.17;6.47;;;25.90;89.00;;;;;;5033005;28;20921;-85
2023/09/16 19:59:02;;;;;;;6.67;6.07;;;25.90;89.20;;;;;;5038330;28;20461;-83
2023/09/16 20:01:59;;;;;;;7.93;5.90;;;25.90;88.90;;;;;;5028315;28;20944;-87
2023/09/16 20:05:09;;;;;;;6.47;5.87;;;25.80;89.40;;;;;;5038183;22;20516;-85
2023/09/16 20:08:08;;;;;;;6.70;6.10;;;25.80;89.60;;;;;;5030404;28;20453;-89
2023/09/16 20:14:24;;;;;;;6.33;5.73;;;25.90;90.00;;;;;;5037203;28;20452;-85
2023/09/16 20:17:27;;;;;;;7.30;6.70;;;25.80;90.30;;;;;;5032958;28;20980;-86
2023/09/16 20:20:50;;;;;;;6.50;5.90;;;25.80;90.80;;;;;;5014274;28;21004;-86
2023/09/16 20:27:02;;;;;;;6.07;5.57;;;25.60;91.40;;;;;;5029621;28;20483;-87
2023/09/16 20:33:57;;;;;;;7.93;6.97;;;25.60;91.80;;;;;;4982809;28;20459;-87
2023/09/16 20:37:19;;;;;;;7.73;6.80;;;25.60;92.20;;;;;;4980463;28;20457;-86
2023/09/16 20:43:13;;;;;;;7.30;6.70;;;25.40;92.80;;;;;;4984476;28;20448;-86
2023/09/16 20:46:13;;;;;;;;;;;;;;;;;;;;;
2023/09/16 20:49:58;;;;;;;;;;;;;;;;;;;;;
2023/09/16 20:52:57;;;;;;;6.70;6.07;;;25.20;93.60;;;;;;4996721;28;20484;-85
2023/09/16 20:56:29;;;;;;;;;;;;;;;;;;;;;
2023/09/16 20:59:53;;;;;;;5.70;5.30;;;25.30;93.70;;;;;;5030887;28;20444;-83
2023/09/16 21:03:15;;;;;;;6.87;6.23;;;25.20;93.90;;;;;;4969781;28;20488;-86
2023/09/16 21:10:24;;;;;;;5.80;5.20;;;25.20;93.90;;;;;;4942621;29;20450;-85
2023/09/16 21:13:20;;;;;;;6.03;5.50;;;25.10;94.20;;;;;;4959254;28;20479;-86
2023/09/16 21:20:06;;;;;;;6.70;6.10;;;25.20;94.00;;;;;;4960254;28;20491;-85
2023/09/16 21:27:07;;;;;;;6.93;5.90;;;25.10;94.30;;;;;;5024067;28;20975;-86
2023/09/16 21:30:24;;;;;;;5.67;5.00;;;25.10;94.30;;;;;;4935343;29;20533;-85
2023/09/16 21:33:20;;;;;;;6.17;5.67;;;24.80;94.60;;;;;;4940784;28;20478;-85
2023/09/16 21:36:49;;;;;;;8.97;6.60;;;24.70;95.10;;;;;;4889970;29;20985;-86
2023/09/16 21:40:02;;;;;;;5.70;5.20;;;24.80;95.20;;;;;;4950756;28;20443;-84
2023/09/16 21:46:31;;;;;;;6.83;6.23;;;24.80;95.40;;;;;;4985588;28;20452;-84
2023/09/16 21:49:37;;;;;;;6.30;5.80;;;24.80;95.70;;;;;;4984313;28;20436;-85
2023/09/16 21:52:56;;;;;;;;;;;;;;;;;;;;;
2023/09/16 21:55:58;;;;;;;6.70;6.10;;;24.50;96.20;;;;;;5002767;28;20427;-88
2023/09/16 21:59:41;;;;;;;5.87;5.37;;;24.50;96.50;;;;;;4929308;28;20449;-86
2023/09/16 22:02:40;;;;;;;8.20;6.00;;;24.50;96.70;;;;;;4978756;28;21040;-83
2023/09/16 22:05:40;;;;;;;6.37;5.87;;;24.40;97.10;;;;;;4963714;28;20491;-85
2023/09/16 22:08:36;;;;;;;5.97;5.47;;;24.30;97.40;;;;;;5035021;28;20416;-85
2023/09/16 22:11:33;;;;;;;6.87;6.23;;;24.50;97.60;;;;;;5033178;28;20468;-86
2023/09/16 22:14:25;;;;;;;6.87;5.83;;;24.40;97.70;;;;;;5027029;28;20489;-87
2023/09/16 22:17:40;;;;;;;6.80;6.20;;;24.20;98.10;;;;;;5014605;28;20457;-85
2023/09/16 22:21:28;;;;;;;6.77;6.17;;;24.10;98.40;;;;;;5031304;28;20465;-85
2023/09/16 22:24:15;;;;;;;6.90;6.17;;;23.90;99.00;;;;;;5026938;28;20949;-84
2023/09/16 22:27:12;;;;;;;7.40;6.80;;;23.90;99.40;;;;;;5020354;28;20789;-84